Time;durP1;ratioP1;P1;durP2;ratioP2;P2;SDS_P1;SDS_P2;PMS_P1;PMS_P2;Temp;Humidity;BMP_temperature;BMP_pressure;BME280_temperature;BME280_humidity;BME280_pressure;Samples;Min_cycle;Max_cycle;Signal;HPM_P1;HPM_P2
2022/12/28 00:00:50;;;;;;;8.40;5.67;;;5.60;99.90;;;;;;4963417;28;20050;-83
2022/12/28 00:03:16;;;;;;;10.77;6.07;;;5.60;99.90;;;;;;4995639;28;20213;-80
2022/12/28 00:05:42;;;;;;;7.90;5.50;;;5.60;99.90;;;;;;4979185;28;20129;-80
2022/12/28 00:08:07;;;;;;;10.60;5.70;;;5.60;99.90;;;;;;4995761;28;20096;-82
2022/12/28 00:10:33;;;;;;;11.20;5.43;;;5.60;99.90;;;;;;4963497;28;20069;-80
2022/12/28 00:12:59;;;;;;;9.23;5.70;;;5.60;99.90;;;;;;4963808;28;20042;-80
2022/12/28 00:15:24;;;;;;;9.93;5.97;;;5.60;99.90;;;;;;5011836;28;20524;-84
2022/12/28 00:17:50;;;;;;;8.80;5.40;;;5.60;99.90;;;;;;4995630;28;20069;-80
2022/12/28 00:20:16;;;;;;;9.90;5.50;;;5.60;99.90;;;;;;5011588;28;20041;-82
2022/12/28 00:22:42;;;;;;;8.43;5.73;;;5.60;99.90;;;;;;5012050;28;20128;-81
2022/12/28 00:25:08;;;;;;;11.37;5.37;;;5.60;99.90;;;;;;4963899;28;20036;-83
2022/12/28 00:27:33;;;;;;;10.37;6.07;;;5.60;99.90;;;;;;4963543;28;20470;-83
2022/12/28 00:29:59;;;;;;;9.97;5.63;;;5.60;99.90;;;;;;4981008;28;20049;-82
2022/12/28 00:32:25;;;;;;;11.37;6.17;;;5.60;99.90;;;;;;4982767;28;20038;-81
2022/12/28 00:34:51;;;;;;;12.80;6.13;;;5.60;99.90;;;;;;4982487;28;20124;-81
2022/12/28 00:37:17;;;;;;;11.70;6.00;;;5.60;99.90;;;;;;4982678;28;20133;-83
2022/12/28 00:39:43;;;;;;;12.87;6.37;;;5.60;99.90;;;;;;4982554;28;20540;-82
2022/12/28 00:42:09;;;;;;;14.40;6.40;;;5.60;99.90;;;;;;4982298;28;20096;-82
2022/12/28 00:44:35;;;;;;;10.27;6.10;;;5.60;99.90;;;;;;4997741;28;20517;-82
2022/12/28 00:47:01;;;;;;;10.47;5.70;;;5.60;99.90;;;;;;5011472;28;20034;-84
2022/12/28 00:49:26;;;;;;;15.33;6.57;;;5.60;99.90;;;;;;4982029;28;20452;-82
2022/12/28 00:51:52;;;;;;;12.80;6.53;;;5.60;99.90;;;;;;5013657;28;20042;-81
2022/12/28 00:54:18;;;;;;;13.03;6.27;;;5.60;99.90;;;;;;4978366;28;20236;-83
2022/12/28 00:56:44;;;;;;;16.53;7.10;;;5.50;99.90;;;;;;5010323;28;20489;-82
2022/12/28 00:59:11;;;;;;;10.57;6.60;;;5.60;99.90;;;;;;4979007;28;20038;-82
2022/12/28 01:01:37;;;;;;;11.67;6.60;;;5.50;99.90;;;;;;5010919;28;20030;-83
2022/12/28 01:04:03;;;;;;;12.90;6.40;;;5.50;99.90;;;;;;4975446;28;20379;-81
2022/12/28 01:06:29;;;;;;;13.70;6.50;;;5.50;99.90;;;;;;4976563;28;20053;-83
2022/12/28 01:08:55;;;;;;;12.97;6.43;;;5.50;99.90;;;;;;4993414;28;20030;-81
2022/12/28 01:11:26;;;;;;;11.87;6.60;;;5.50;99.90;;;;;;4979919;28;20042;-82
2022/12/28 01:13:53;;;;;;;10.35;6.78;;;5.60;99.90;;;;;;4997787;28;20034;-82
2022/12/28 01:16:23;;;;;;;11.63;7.13;;;5.50;99.90;;;;;;5012732;28;20520;-81
2022/12/28 01:18:52;;;;;;;14.33;7.20;;;5.60;99.90;;;;;;4996671;28;20099;-83
2022/12/28 01:21:21;;;;;;;11.93;6.00;;;5.60;99.90;;;;;;4996541;28;20092;-82
2022/12/28 01:23:48;;;;;;;7.40;5.87;;;5.60;99.90;;;;;;4986601;28;20044;-82
2022/12/28 01:26:14;;;;;;;13.73;7.10;;;5.60;99.90;;;;;;5012118;28;20117;-82
2022/12/28 01:28:40;;;;;;;12.20;6.20;;;5.60;99.90;;;;;;4980272;28;20069;-82
2022/12/28 01:31:12;;;;;;;12.27;6.80;;;5.70;99.90;;;;;;4972600;28;20046;-82
2022/12/28 01:33:38;;;;;;;10.10;6.10;;;5.70;99.90;;;;;;4997442;28;20052;-82
2022/12/28 01:36:08;;;;;;;10.77;6.13;;;5.70;99.90;;;;;;4994783;28;20081;-84
2022/12/28 01:38:35;;;;;;;8.33;6.23;;;5.60;99.90;;;;;;5010194;28;20041;-82
2022/12/28 01:41:01;;;;;;;13.90;6.80;;;5.70;99.90;;;;;;4996931;28;20421;-82
2022/12/28 01:43:46;;;;;;;10.23;6.80;;;5.70;99.90;;;;;;4997116;28;20477;-82
2022/12/28 01:46:21;;;;;;;12.33;6.87;;;5.70;99.90;;;;;;5014177;28;20421;-83
2022/12/28 01:48:52;;;;;;;12.53;6.37;;;5.70;99.90;;;;;;4997229;28;20050;-83
2022/12/28 01:51:21;;;;;;;13.53;6.80;;;5.70;99.90;;;;;;4997205;28;20128;-83
2022/12/28 01:53:49;;;;;;;9.73;6.67;;;5.70;99.90;;;;;;4997433;28;20030;-82
2022/12/28 01:56:15;;;;;;;12.97;7.60;;;5.80;99.90;;;;;;4981383;28;20049;-82
2022/12/28 01:58:41;;;;;;;11.80;6.70;;;5.80;99.90;;;;;;4980960;28;20038;-84
2022/12/28 02:01:08;;;;;;;11.00;6.80;;;5.80;99.90;;;;;;4981149;28;20054;-82
2022/12/28 02:03:34;;;;;;;12.77;7.03;;;5.80;99.90;;;;;;4981241;28;20065;-80
2022/12/28 02:06:05;;;;;;;13.77;7.53;;;5.80;99.90;;;;;;4980828;28;20037;-82
2022/12/28 02:09:02;;;;;;;15.73;7.47;;;5.80;99.90;;;;;;5012881;28;20095;-82
2022/12/28 02:11:29;;;;;;;8.77;6.63;;;5.80;99.90;;;;;;5008015;28;20405;-82
2022/12/28 02:13:56;;;;;;;10.67;6.50;;;5.80;99.90;;;;;;4976229;28;20045;-82
2022/12/28 02:16:21;;;;;;;10.83;6.53;;;5.80;99.90;;;;;;4982693;28;20038;-82
2022/12/28 02:18:47;;;;;;;13.73;6.63;;;5.80;99.90;;;;;;4979394;28;20391;-83
2022/12/28 02:21:44;;;;;;;11.37;6.50;;;5.80;99.90;;;;;;4995618;28;20045;-81
2022/12/28 02:24:10;;;;;;;10.60;6.90;;;5.90;99.90;;;;;;5005632;28;20049;-83
2022/12/28 02:27:03;;;;;;;13.70;7.33;;;5.80;99.90;;;;;;4998170;28;20072;-81
2022/12/28 02:29:44;;;;;;;10.93;7.00;;;5.80;99.90;;;;;;5026655;28;20128;-81
2022/12/28 02:32:31;;;;;;;9.60;6.83;;;5.90;99.90;;;;;;5008696;28;20034;-82
2022/12/28 02:35:16;;;;;;;10.70;7.70;;;5.90;99.90;;;;;;4991456;28;20044;-80
2022/12/28 02:37:56;;;;;;;12.03;8.20;;;5.90;99.90;;;;;;4994977;28;20494;-82
2022/12/28 02:40:42;;;;;;;13.00;8.07;;;5.90;99.90;;;;;;4995834;28;20061;-83
2022/12/28 02:43:07;;;;;;;13.67;8.07;;;5.90;99.90;;;;;;4994861;28;20038;-82
2022/12/28 02:51:39;;;;;;;13.10;8.07;;;5.90;99.90;;;;;;5013338;28;20489;-82
2022/12/28 02:57:49;;;;;;;12.00;8.13;;;5.90;99.90;;;;;;4992353;28;20065;-83
2022/12/28 03:00:20;;;;;;;12.90;8.03;;;5.90;99.90;;;;;;4992427;28;20092;-82
2022/12/28 03:02:58;;;;;;;10.00;7.90;;;5.90;99.90;;;;;;4982716;28;20022;-81
2022/12/28 03:09:14;;;;;;;10.80;7.93;;;5.90;99.90;;;;;;4988298;28;20489;-80
2022/12/28 03:11:45;;;;;;;9.57;8.37;;;6.00;99.90;;;;;;5012430;28;20041;-81
2022/12/28 03:14:18;;;;;;;12.27;8.00;;;6.00;99.90;;;;;;4995542;28;20042;-82
2022/12/28 03:31:09;;;;;;;12.67;8.73;;;6.10;99.90;;;;;;4940224;28;20047;-81
2022/12/28 03:33:46;;;;;;;16.63;9.70;;;6.10;99.90;;;;;;4926494;29;20039;-80
2022/12/28 03:36:46;;;;;;;12.87;9.17;;;6.10;99.90;;;;;;4917591;29;20051;-83
2022/12/28 03:39:28;;;;;;;14.13;9.23;;;6.20;99.90;;;;;;4971114;28;20060;-82
2022/12/28 03:44:53;;;;;;;11.97;9.47;;;6.20;99.90;;;;;;5011920;28;19984;-80
2022/12/28 03:47:22;;;;;;;14.37;9.33;;;6.20;99.90;;;;;;4995490;28;20048;-83
2022/12/28 03:49:49;;;;;;;14.40;9.13;;;6.20;99.90;;;;;;4994846;28;20559;-82
2022/12/28 03:52:15;;;;;;;11.33;8.80;;;6.20;99.90;;;;;;4996565;28;20045;-81
2022/12/28 03:54:42;;;;;;;15.43;9.10;;;6.30;99.90;;;;;;4992262;28;20042;-80
2022/12/28 03:57:08;;;;;;;12.53;8.57;;;6.30;99.90;;;;;;4983523;28;20064;-83
2022/12/28 03:59:34;;;;;;;15.07;8.83;;;6.30;99.90;;;;;;5004674;28;20565;-80
2022/12/28 04:01:59;;;;;;;14.80;9.73;;;6.30;99.90;;;;;;4978288;28;20041;-80
2022/12/28 04:04:25;;;;;;;15.90;8.73;;;6.40;99.90;;;;;;4996582;28;20120;-80
2022/12/28 04:06:51;;;;;;;10.80;8.23;;;6.40;99.90;;;;;;4998990;28;20449;-79
2022/12/28 04:09:16;;;;;;;11.73;8.53;;;6.40;99.90;;;;;;4999034;28;20561;-80
2022/12/28 04:11:42;;;;;;;12.83;8.40;;;6.40;99.90;;;;;;4966161;28;20378;-81
2022/12/28 04:14:08;;;;;;;11.17;8.10;;;6.50;99.90;;;;;;4998599;28;20049;-78
2022/12/28 04:16:33;;;;;;;10.30;8.37;;;6.50;99.90;;;;;;4998243;28;20512;-81
2022/12/28 04:18:59;;;;;;;12.97;8.07;;;6.50;99.90;;;;;;5014451;28;20103;-80
2022/12/28 04:21:25;;;;;;;10.93;8.57;;;6.50;99.90;;;;;;4982549;28;20442;-80
2022/12/28 04:23:51;;;;;;;10.50;7.27;;;6.50;99.90;;;;;;4981910;28;20095;-80
2022/12/28 04:26:17;;;;;;;9.67;7.10;;;6.50;99.90;;;;;;4963396;28;20041;-81
2022/12/28 04:28:43;;;;;;;10.47;7.33;;;6.50;99.90;;;;;;5009168;28;20749;-81
2022/12/28 04:31:12;;;;;;;11.07;7.07;;;6.50;99.90;;;;;;4996488;28;20038;-80
2022/12/28 04:33:40;;;;;;;9.10;6.53;;;6.60;99.90;;;;;;5014433;28;20059;-81
2022/12/28 04:36:15;;;;;;;8.83;6.87;;;6.60;99.90;;;;;;4989337;28;20136;-82
2022/12/28 04:38:41;;;;;;;9.13;7.07;;;6.70;99.90;;;;;;4992028;28;20042;-80
2022/12/28 04:41:08;;;;;;;9.03;6.80;;;6.60;99.90;;;;;;5007663;28;20125;-81
2022/12/28 04:43:35;;;;;;;11.90;7.70;;;6.60;99.90;;;;;;5007630;28;20036;-81
2022/12/28 04:46:03;;;;;;;9.03;7.47;;;6.60;99.90;;;;;;5011535;28;20038;-82
2022/12/28 04:48:29;;;;;;;7.70;6.40;;;6.70;99.90;;;;;;5011370;28;20051;-80
2022/12/28 04:50:57;;;;;;;7.20;6.47;;;6.70;99.90;;;;;;5015138;28;20121;-79
2022/12/28 04:53:23;;;;;;;7.53;6.20;;;6.70;99.90;;;;;;4993000;28;20050;-80
2022/12/28 04:55:49;;;;;;;11.00;6.67;;;6.70;99.90;;;;;;5011740;28;20081;-81
2022/12/28 04:58:15;;;;;;;10.13;6.63;;;6.70;99.90;;;;;;5030195;28;20096;-82
2022/12/28 05:00:41;;;;;;;7.90;6.60;;;6.70;99.90;;;;;;4997421;28;20046;-81
2022/12/28 05:03:07;;;;;;;8.40;6.80;;;6.80;99.90;;;;;;5013700;28;20104;-80
2022/12/28 05:05:32;;;;;;;7.50;6.67;;;6.70;99.90;;;;;;4997783;28;20042;-81
2022/12/28 05:08:02;;;;;;;7.43;6.53;;;6.80;99.90;;;;;;4981723;28;20136;-81
2022/12/28 05:10:28;;;;;;;7.30;6.47;;;6.80;99.90;;;;;;5013805;28;20037;-81
2022/12/28 05:12:55;;;;;;;9.03;6.50;;;6.80;99.90;;;;;;4997289;28;20037;-81
2022/12/28 05:15:21;;;;;;;7.30;6.27;;;6.90;99.90;;;;;;4980776;28;20038;-81
2022/12/28 05:17:47;;;;;;;7.60;6.00;;;6.90;99.90;;;;;;4996788;28;20045;-81
2022/12/28 05:20:13;;;;;;;7.20;6.07;;;6.90;99.90;;;;;;4981080;28;20530;-82
2022/12/28 05:22:38;;;;;;;7.03;5.80;;;6.90;99.90;;;;;;4965324;28;20045;-82
2022/12/28 05:25:05;;;;;;;7.20;6.07;;;6.90;99.90;;;;;;5013338;28;20037;-81
2022/12/28 05:27:30;;;;;;;7.40;6.13;;;6.90;99.90;;;;;;4980668;28;20033;-83
2022/12/28 05:29:56;;;;;;;10.07;6.73;;;7.00;99.90;;;;;;4996968;28;20056;-82
2022/12/28 05:32:21;;;;;;;9.37;6.47;;;7.00;99.90;;;;;;4980859;28;20045;-81
2022/12/28 05:34:47;;;;;;;7.80;7.00;;;7.00;99.90;;;;;;4980828;28;20034;-81
2022/12/28 05:37:14;;;;;;;8.03;6.33;;;7.00;99.90;;;;;;4964862;28;20048;-80
2022/12/28 05:39:39;;;;;;;8.40;6.77;;;7.10;99.90;;;;;;5009057;28;20038;-81
2022/12/28 05:42:05;;;;;;;8.13;6.90;;;7.10;99.90;;;;;;4963965;28;20117;-82
2022/12/28 05:44:31;;;;;;;9.17;6.73;;;7.10;99.90;;;;;;4977520;28;20042;-83
2022/12/28 05:46:56;;;;;;;9.47;7.53;;;7.10;99.90;;;;;;4962026;28;20042;-81
2022/12/28 05:49:22;;;;;;;8.77;7.17;;;7.10;99.90;;;;;;4966522;28;20046;-80
2022/12/28 05:51:52;;;;;;;8.13;7.20;;;7.20;99.90;;;;;;4996404;28;20050;-83
2022/12/28 05:54:17;;;;;;;7.63;6.83;;;7.10;99.90;;;;;;4997249;28;20045;-80
2022/12/28 05:56:44;;;;;;;7.37;6.60;;;7.20;99.90;;;;;;5012736;28;20065;-82
2022/12/28 05:59:12;;;;;;;7.73;6.93;;;7.20;99.90;;;;;;4996489;28;20555;-81
2022/12/28 06:01:39;;;;;;;8.33;6.83;;;7.20;99.90;;;;;;4980571;28;20058;-81
2022/12/28 06:04:15;;;;;;;9.93;7.77;;;7.30;99.90;;;;;;5012292;28;20042;-81
2022/12/28 06:06:41;;;;;;;8.30;7.00;;;7.20;99.90;;;;;;4996792;28;20045;-82
2022/12/28 06:09:06;;;;;;;9.40;7.40;;;7.30;99.90;;;;;;4996427;28;20041;-82
2022/12/28 06:11:32;;;;;;;9.20;8.17;;;7.30;99.90;;;;;;5012787;28;20132;-82
2022/12/28 06:13:59;;;;;;;10.60;8.00;;;7.30;99.90;;;;;;4996501;28;20041;-82
2022/12/28 06:16:30;;;;;;;10.93;8.83;;;7.30;99.90;;;;;;5012818;28;20061;-82
2022/12/28 06:18:56;;;;;;;11.40;8.53;;;7.40;99.90;;;;;;4995874;28;20041;-83
2022/12/28 06:21:25;;;;;;;11.37;9.30;;;7.40;99.90;;;;;;4980153;28;20038;-81
2022/12/28 06:23:53;;;;;;;11.20;9.27;;;7.40;99.90;;;;;;4996036;28;20092;-82
2022/12/28 06:26:20;;;;;;;11.40;8.80;;;7.40;99.90;;;;;;5012678;28;20041;-83
2022/12/28 06:28:47;;;;;;;13.10;9.20;;;7.50;99.90;;;;;;4996008;28;20037;-80
2022/12/28 06:31:24;;;;;;;10.23;8.90;;;7.50;99.90;;;;;;4996082;28;20111;-81
2022/12/28 06:33:55;;;;;;;10.57;8.90;;;7.50;99.90;;;;;;4992575;28;20490;-82
2022/12/28 06:36:37;;;;;;;13.73;9.97;;;7.50;99.90;;;;;;5012394;28;20041;-82
2022/12/28 06:39:05;;;;;;;12.25;9.90;;;7.50;99.90;;;;;;4996230;28;20048;-79
2022/12/28 06:41:31;;;;;;;14.17;10.17;;;7.50;99.90;;;;;;4997798;28;20069;-83
2022/12/28 06:43:58;;;;;;;14.23;10.80;;;7.60;99.90;;;;;;4963999;28;20152;-82
2022/12/28 06:46:26;;;;;;;12.97;10.27;;;7.60;99.90;;;;;;5008823;28;20046;-80
2022/12/28 06:48:51;;;;;;;11.33;9.67;;;7.60;99.90;;;;;;5004729;28;20042;-84
2022/12/28 06:51:37;;;;;;;14.83;10.90;;;7.60;99.90;;;;;;4995699;28;20802;-82
2022/12/28 06:54:03;;;;;;;12.07;9.77;;;7.70;99.90;;;;;;4995891;28;20049;-81
2022/12/28 06:56:31;;;;;;;11.83;9.80;;;7.70;99.90;;;;;;4994995;28;20038;-81
2022/12/28 06:58:57;;;;;;;12.77;10.23;;;7.70;99.90;;;;;;5008930;28;20045;-83
2022/12/28 07:01:29;;;;;;;11.73;9.30;;;7.70;99.90;;;;;;4995405;28;20050;-82
2022/12/28 07:03:56;;;;;;;13.05;9.90;;;7.80;99.90;;;;;;4990289;28;20500;-80
2022/12/28 07:06:25;;;;;;;12.60;9.23;;;7.80;99.90;;;;;;4979736;28;20042;-81
2022/12/28 07:08:51;;;;;;;12.00;9.43;;;7.80;99.90;;;;;;5006610;28;20038;-82
2022/12/28 07:11:21;;;;;;;11.77;9.40;;;7.80;99.90;;;;;;5011636;28;20049;-81
2022/12/28 07:13:47;;;;;;;12.17;9.43;;;7.90;99.90;;;;;;5009323;28;20561;-81
2022/12/28 07:16:15;;;;;;;11.27;9.43;;;7.90;99.90;;;;;;4978955;28;20037;-80
2022/12/28 07:18:42;;;;;;;11.90;10.30;;;7.90;99.90;;;;;;4995360;28;20081;-81
2022/12/28 07:21:11;;;;;;;11.83;9.63;;;8.00;99.90;;;;;;5010575;28;20579;-81
2022/12/28 07:23:37;;;;;;;11.50;9.53;;;8.00;99.90;;;;;;5011648;28;20105;-82
2022/12/28 07:26:21;;;;;;;11.40;9.73;;;8.00;99.90;;;;;;4962807;28;20474;-83
2022/12/28 07:28:48;;;;;;;11.47;9.40;;;8.00;99.90;;;;;;4994569;28;20045;-80
2022/12/28 07:31:22;;;;;;;12.77;9.97;;;8.10;99.90;;;;;;4979233;28;20045;-82
2022/12/28 07:33:49;;;;;;;13.83;11.73;;;8.10;99.90;;;;;;5011147;28;20802;-81
2022/12/28 07:36:17;;;;;;;14.30;11.17;;;8.10;99.90;;;;;;5011513;28;20041;-81
2022/12/28 07:38:43;;;;;;;13.50;11.17;;;8.10;99.90;;;;;;4978422;28;20045;-82
2022/12/28 07:41:11;;;;;;;15.70;11.40;;;8.20;99.90;;;;;;5015553;28;20121;-80
2022/12/28 07:43:37;;;;;;;14.10;11.17;;;8.20;99.90;;;;;;4999026;28;20037;-81
2022/12/28 07:46:06;;;;;;;15.07;12.17;;;8.20;99.90;;;;;;4999050;28;20092;-83
2022/12/28 07:48:33;;;;;;;14.80;11.73;;;8.20;99.90;;;;;;4998881;28;20077;-84
2022/12/28 07:51:12;;;;;;;17.73;13.10;;;8.30;99.90;;;;;;4983224;28;20462;-81
2022/12/28 07:53:39;;;;;;;15.17;12.43;;;8.30;99.90;;;;;;4999180;28;20046;-82
2022/12/28 07:56:06;;;;;;;16.30;12.57;;;8.30;99.90;;;;;;5015899;28;20116;-83
2022/12/28 07:58:32;;;;;;;16.27;12.87;;;8.30;99.90;;;;;;4982653;28;20042;-82
2022/12/28 08:01:11;;;;;;;14.90;11.90;;;8.30;99.90;;;;;;4982545;28;20065;-82
2022/12/28 08:03:38;;;;;;;14.47;12.33;;;8.40;99.90;;;;;;4998934;28;20045;-84
2022/12/28 08:06:18;;;;;;;14.17;12.60;;;8.40;99.90;;;;;;5014772;28;20052;-81
2022/12/28 08:08:46;;;;;;;17.43;12.47;;;8.40;99.90;;;;;;5016026;28;20473;-81
2022/12/28 08:11:15;;;;;;;18.20;12.73;;;8.40;99.90;;;;;;4998870;28;20107;-83
2022/12/28 08:13:43;;;;;;;15.60;11.80;;;8.40;99.90;;;;;;5015324;28;20049;-84
2022/12/28 08:16:10;;;;;;;18.20;12.63;;;8.40;99.90;;;;;;4998527;28;20184;-82
2022/12/28 08:18:37;;;;;;;16.00;12.57;;;8.40;99.90;;;;;;4998810;28;20053;-83
2022/12/28 08:21:09;;;;;;;16.90;12.87;;;8.40;99.90;;;;;;5015338;28;20030;-82
2022/12/28 08:23:35;;;;;;;17.20;13.70;;;8.40;99.90;;;;;;4998989;28;20038;-82
2022/12/28 08:26:26;;;;;;;16.03;12.80;;;8.40;99.90;;;;;;4998922;28;20381;-84
2022/12/28 08:28:54;;;;;;;18.20;12.77;;;8.50;99.90;;;;;;5007395;28;20108;-82
2022/12/28 08:31:22;;;;;;;16.30;13.17;;;8.50;99.90;;;;;;4998479;28;20041;-83
2022/12/28 08:33:49;;;;;;;19.10;14.00;;;8.50;99.90;;;;;;4998591;28;20045;-81
2022/12/28 08:36:15;;;;;;;15.30;12.63;;;8.50;99.90;;;;;;4969099;28;20129;-80
2022/12/28 08:38:42;;;;;;;17.20;13.53;;;8.50;99.90;;;;;;4999582;28;20068;-82
2022/12/28 08:41:11;;;;;;;15.77;12.40;;;8.50;99.90;;;;;;5014957;28;20069;-84
2022/12/28 08:43:37;;;;;;;16.27;12.50;;;8.50;99.90;;;;;;4997995;28;20056;-81
2022/12/28 08:46:06;;;;;;;14.67;12.03;;;8.50;99.90;;;;;;5014350;28;20038;-81
2022/12/28 08:48:33;;;;;;;15.13;10.60;;;8.50;99.90;;;;;;4998231;28;20050;-82
2022/12/28 08:51:05;;;;;;;13.70;10.33;;;8.50;99.90;;;;;;4998025;28;20052;-83
2022/12/28 08:53:31;;;;;;;16.38;10.93;;;8.50;99.90;;;;;;5014507;28;20508;-82
2022/12/28 08:56:09;;;;;;;11.60;9.37;;;8.50;99.90;;;;;;5015775;28;20069;-84
2022/12/28 08:58:37;;;;;;;12.50;9.07;;;8.60;99.90;;;;;;4998055;28;20037;-82
2022/12/28 09:01:32;;;;;;;12.83;9.33;;;8.60;99.90;;;;;;4987437;28;20056;-81
2022/12/28 09:03:59;;;;;;;12.60;9.03;;;8.60;99.90;;;;;;4998314;28;20052;-82
2022/12/28 09:06:36;;;;;;;9.87;8.83;;;8.60;99.90;;;;;;5007463;28;20041;-83
2022/12/28 09:09:04;;;;;;;12.43;10.10;;;8.60;99.90;;;;;;4995322;28;20030;-82
2022/12/28 09:11:30;;;;;;;14.00;10.13;;;8.50;99.90;;;;;;5006833;28;20046;-83
2022/12/28 09:13:56;;;;;;;14.13;10.60;;;8.50;99.90;;;;;;4997515;28;20116;-80
2022/12/28 09:16:25;;;;;;;17.60;11.97;;;8.50;99.90;;;;;;4965664;28;20053;-82
2022/12/28 09:18:55;;;;;;;10.23;9.07;;;8.60;99.90;;;;;;4997405;28;20672;-81
2022/12/28 09:21:23;;;;;;;17.23;10.50;;;8.50;99.90;;;;;;4970445;28;20044;-79
2022/12/28 09:23:49;;;;;;;14.93;10.93;;;8.60;99.90;;;;;;5010530;28;20041;-81
2022/12/28 09:26:24;;;;;;;14.70;10.57;;;8.60;99.90;;;;;;4983016;28;20082;-83
2022/12/28 09:28:55;;;;;;;12.87;10.20;;;8.60;99.90;;;;;;5025137;28;20393;-81
2022/12/28 09:31:23;;;;;;;20.37;12.27;;;8.60;99.90;;;;;;5005389;28;20045;-80
2022/12/28 09:33:57;;;;;;;16.57;11.43;;;8.60;99.90;;;;;;4981077;28;20528;-81
2022/12/28 09:36:25;;;;;;;19.43;13.53;;;8.60;99.90;;;;;;4975935;28;20076;-83
2022/12/28 09:38:51;;;;;;;21.57;12.73;;;8.70;99.90;;;;;;4981177;28;20042;-80
2022/12/28 09:41:44;;;;;;;24.33;13.87;;;8.70;99.90;;;;;;5009719;28;20137;-80
2022/12/28 09:44:15;;;;;;;15.67;10.77;;;8.70;99.90;;;;;;5004071;28;20042;-82
2022/12/28 09:46:53;;;;;;;15.38;10.20;;;8.70;99.90;;;;;;5004592;28;20073;-83
2022/12/28 09:49:23;;;;;;;13.83;10.93;;;8.70;99.90;;;;;;4992509;28;20510;-80
2022/12/28 09:52:12;;;;;;;14.17;10.17;;;8.70;99.90;;;;;;4998425;28;20041;-82
2022/12/28 09:54:39;;;;;;;12.80;9.80;;;8.70;99.90;;;;;;5011083;28;20037;-82
2022/12/28 09:57:12;;;;;;;15.00;10.37;;;8.70;99.90;;;;;;4991142;28;20150;-82
2022/12/28 09:59:38;;;;;;;15.53;10.10;;;8.80;99.90;;;;;;4994444;28;20089;-81
2022/12/28 10:02:13;;;;;;;13.70;10.23;;;8.70;99.90;;;;;;4975283;28;20048;-83
2022/12/28 10:04:39;;;;;;;14.83;9.63;;;8.80;99.90;;;;;;4992853;28;20038;-82
2022/12/28 10:07:08;;;;;;;13.23;10.43;;;8.80;99.90;;;;;;4991058;28;20132;-81
2022/12/28 10:09:34;;;;;;;14.20;10.03;;;8.80;99.90;;;;;;4985763;28;20042;-81
2022/12/28 10:12:19;;;;;;;11.80;9.57;;;8.80;99.90;;;;;;4971157;28;20481;-82
2022/12/28 10:14:46;;;;;;;11.97;9.37;;;8.80;99.90;;;;;;5007272;28;20046;-81
2022/12/28 10:17:13;;;;;;;11.93;9.23;;;8.90;99.90;;;;;;5000057;28;20427;-83
2022/12/28 10:19:39;;;;;;;13.37;9.83;;;8.90;99.90;;;;;;4998217;28;20069;-83
2022/12/28 10:22:07;;;;;;;11.00;9.13;;;8.90;99.90;;;;;;5007464;28;20623;-82
2022/12/28 10:24:33;;;;;;;11.07;9.43;;;8.90;99.90;;;;;;4992498;28;20038;-82
2022/12/28 10:27:03;;;;;;;13.63;9.57;;;8.90;99.90;;;;;;5007664;28;20049;-84
2022/12/28 10:29:31;;;;;;;11.23;9.53;;;8.90;99.90;;;;;;4996116;28;20034;-82
2022/12/28 10:31:59;;;;;;;11.70;9.10;;;8.90;99.90;;;;;;5006595;28;20049;-82
2022/12/28 10:34:26;;;;;;;11.67;9.13;;;8.90;99.90;;;;;;5009425;28;20045;-81
2022/12/28 10:36:54;;;;;;;12.37;9.67;;;8.90;99.90;;;;;;5002256;28;20041;-82
2022/12/28 10:39:26;;;;;;;11.97;8.93;;;9.00;99.90;;;;;;4994564;28;20581;-84
2022/12/28 10:41:53;;;;;;;11.30;9.00;;;9.00;99.90;;;;;;5001264;28;20440;-80
2022/12/28 10:44:28;;;;;;;11.67;8.53;;;9.00;99.90;;;;;;4985246;28;20042;-81
2022/12/28 10:47:03;;;;;;;10.97;9.07;;;9.00;99.90;;;;;;5012438;28;20462;-82
2022/12/28 10:49:35;;;;;;;13.67;9.13;;;9.00;99.90;;;;;;4996095;28;20597;-81
2022/12/28 10:52:17;;;;;;;11.70;8.70;;;9.00;99.90;;;;;;4996314;28;20033;-82
2022/12/28 10:54:43;;;;;;;11.05;8.80;;;8.90;99.90;;;;;;4992665;28;20041;-82
2022/12/28 10:57:26;;;;;;;11.20;8.33;;;9.00;99.90;;;;;;4981206;28;20053;-80
2022/12/28 10:59:52;;;;;;;10.10;7.90;;;9.00;99.90;;;;;;5008974;28;20038;-82
2022/12/28 11:02:28;;;;;;;10.47;7.97;;;9.00;99.90;;;;;;5007118;28;20201;-82
2022/12/28 11:04:58;;;;;;;8.80;6.97;;;9.00;99.90;;;;;;5011094;28;20049;-82
2022/12/28 11:07:29;;;;;;;9.40;8.00;;;9.00;99.90;;;;;;5007125;28;20045;-79
2022/12/28 11:10:26;;;;;;;10.33;7.23;;;9.00;99.90;;;;;;5011414;28;20180;-81
2022/12/28 11:12:57;;;;;;;8.37;6.13;;;9.10;99.90;;;;;;5001026;28;20042;-81
2022/12/28 11:15:31;;;;;;;8.33;6.30;;;9.10;99.90;;;;;;4986263;28;20083;-80
2022/12/28 11:18:12;;;;;;;6.30;5.50;;;9.10;99.90;;;;;;4995089;28;20121;-82
2022/12/28 11:20:45;;;;;;;5.97;5.10;;;9.10;99.90;;;;;;5003576;28;20074;-81
2022/12/28 11:23:18;;;;;;;5.47;4.73;;;9.10;99.90;;;;;;4993846;28;20096;-81
2022/12/28 11:25:44;;;;;;;6.07;5.17;;;9.10;99.90;;;;;;5008717;28;20093;-83
2022/12/28 11:28:16;;;;;;;5.70;5.00;;;9.10;99.90;;;;;;4977590;28;20049;-83
2022/12/28 11:30:43;;;;;;;5.47;4.90;;;9.10;99.90;;;;;;4995024;28;20038;-81
2022/12/28 11:33:44;;;;;;;5.37;4.67;;;9.10;99.90;;;;;;4995070;28;20050;-82
2022/12/28 11:36:30;;;;;;;5.27;4.60;;;9.10;99.90;;;;;;4973608;28;20053;-81
2022/12/28 11:38:57;;;;;;;5.07;4.47;;;9.10;99.90;;;;;;5011066;28;20050;-82
2022/12/28 11:41:22;;;;;;;6.63;5.10;;;9.10;99.90;;;;;;4994907;28;20620;-81
2022/12/28 11:43:57;;;;;;;5.77;4.77;;;9.10;99.90;;;;;;5011891;28;20048;-82
2022/12/28 11:46:23;;;;;;;5.60;4.63;;;9.10;99.90;;;;;;4979884;28;20049;-81
2022/12/28 11:48:55;;;;;;;5.40;4.60;;;9.10;99.90;;;;;;5011719;28;20046;-81
2022/12/28 11:51:28;;;;;;;5.37;4.47;;;9.10;99.90;;;;;;5006083;28;20129;-81
2022/12/28 11:54:00;;;;;;;6.10;5.00;;;9.10;99.90;;;;;;4997673;28;20046;-82
2022/12/28 11:56:48;;;;;;;6.72;5.05;;;9.10;99.90;;;;;;4995631;28;20042;-82
2022/12/28 11:59:25;;;;;;;6.20;5.17;;;9.10;99.90;;;;;;4969411;28;20085;-81
2022/12/28 12:01:56;;;;;;;6.93;5.10;;;9.10;99.90;;;;;;4992221;28;20104;-82
2022/12/28 12:04:39;;;;;;;5.83;4.97;;;9.10;99.90;;;;;;4975998;28;20058;-81
2022/12/28 12:07:13;;;;;;;5.67;5.07;;;9.10;99.90;;;;;;4991230;28;20096;-81
2022/12/28 12:09:42;;;;;;;6.30;4.93;;;9.10;99.90;;;;;;5012157;28;20041;-82
2022/12/28 12:12:14;;;;;;;6.40;4.90;;;9.10;99.90;;;;;;5011418;28;20030;-82
2022/12/28 12:14:53;;;;;;;6.68;5.10;;;9.10;99.90;;;;;;5011821;28;20042;-83
2022/12/28 12:17:35;;;;;;;6.87;5.83;;;9.10;99.90;;;;;;4995192;28;20073;-81
2022/12/28 12:20:06;;;;;;;5.22;4.70;;;9.10;99.90;;;;;;5011472;28;20033;-82
2022/12/28 12:22:46;;;;;;;7.00;4.85;;;9.10;99.90;;;;;;5011442;28;20045;-82
2022/12/28 12:25:31;;;;;;;6.53;4.97;;;9.10;99.90;;;;;;5011894;28;20378;-81
2022/12/28 12:28:02;;;;;;;5.43;4.47;;;9.10;99.90;;;;;;4999064;28;20042;-82
2022/12/28 12:30:30;;;;;;;5.23;4.53;;;9.10;99.90;;;;;;4998736;28;20128;-82
2022/12/28 12:32:59;;;;;;;4.77;4.07;;;9.10;99.90;;;;;;4983053;28;20038;-81
2022/12/28 12:35:27;;;;;;;5.10;4.60;;;9.10;99.90;;;;;;5014493;28;20556;-82
2022/12/28 12:38:11;;;;;;;5.13;4.47;;;9.10;99.90;;;;;;4998436;28;20758;-80
2022/12/28 12:40:52;;;;;;;4.93;4.40;;;9.10;99.90;;;;;;5011968;28;20046;-83
2022/12/28 12:43:33;;;;;;;5.90;4.20;;;9.10;99.90;;;;;;4991680;28;20041;-81
2022/12/28 12:46:29;;;;;;;5.90;4.73;;;9.10;99.90;;;;;;4999120;28;20113;-82
2022/12/28 12:49:16;;;;;;;6.63;4.60;;;9.10;99.90;;;;;;4997529;28;20069;-82
2022/12/28 12:52:13;;;;;;;7.50;5.00;;;9.10;99.90;;;;;;4998556;28;20046;-81
2022/12/28 12:55:23;;;;;;;4.53;4.13;;;9.10;99.90;;;;;;5013096;28;20061;-81
2022/12/28 12:58:22;;;;;;;5.20;4.13;;;9.10;99.90;;;;;;5014619;28;20045;-82
2022/12/28 13:01:25;;;;;;;5.40;4.33;;;9.10;99.90;;;;;;4991226;28;20050;-81
2022/12/28 13:03:53;;;;;;;5.23;4.17;;;9.00;99.90;;;;;;5011530;28;20050;-82
2022/12/28 13:06:22;;;;;;;5.20;4.70;;;9.10;99.90;;;;;;5003398;28;20041;-80
2022/12/28 13:08:53;;;;;;;4.27;3.87;;;9.10;99.90;;;;;;4998377;28;21507;-81
2022/12/28 13:11:20;;;;;;;4.30;3.57;;;9.00;99.90;;;;;;5014453;28;20049;-83
2022/12/28 13:13:48;;;;;;;3.37;3.07;;;9.10;99.90;;;;;;4982144;28;20436;-81
2022/12/28 13:16:23;;;;;;;3.67;3.30;;;9.00;99.90;;;;;;4991823;28;20049;-83
2022/12/28 13:19:03;;;;;;;3.57;3.27;;;9.10;99.90;;;;;;4998330;28;20466;-80
2022/12/28 13:21:39;;;;;;;4.50;3.40;;;9.10;99.90;;;;;;5031073;28;20053;-84
2022/12/28 13:24:17;;;;;;;3.73;3.10;;;9.10;99.90;;;;;;4997899;28;20044;-82
2022/12/28 13:26:43;;;;;;;3.73;3.40;;;9.10;99.90;;;;;;4998142;28;20122;-83
2022/12/28 13:29:09;;;;;;;4.33;3.27;;;9.00;99.90;;;;;;4998472;28;20124;-82
2022/12/28 13:31:39;;;;;;;5.40;3.70;;;9.10;99.90;;;;;;4981739;28;20033;-82
2022/12/28 13:34:18;;;;;;;5.13;3.33;;;9.10;99.90;;;;;;4997974;28;20100;-82
2022/12/28 13:36:56;;;;;;;3.70;3.40;;;9.10;99.90;;;;;;5013047;28;20037;-81